createdAt,value
2018-04-28T00:00:32.736Z,18.01
2018-04-28T00:03:02.295Z,17.98
2018-04-28T00:05:29.933Z,17.95
2018-04-28T00:07:57.709Z,17.96
2018-04-28T00:10:25.396Z,17.95
2018-04-28T00:12:53.113Z,17.94
2018-04-28T00:15:21.667Z,17.94
2018-04-28T00:17:49.513Z,17.94
2018-04-28T00:20:19.954Z,17.95
2018-04-28T00:22:55.568Z,17.89
2018-04-28T00:25:33.164Z,17.94
2018-04-28T00:28:17.633Z,17.98
2018-04-28T00:30:48.229Z,17.95
2018-04-28T00:33:21.894Z,17.93
2018-04-28T00:35:49.600Z,17.92
2018-04-28T00:38:17.246Z,17.89
2018-04-28T00:40:47.821Z,17.93
2018-04-28T00:43:17.980Z,17.94
2018-04-28T00:46:05.501Z,17.96
2018-04-28T00:48:33.149Z,17.94
2018-04-28T00:51:16.644Z,17.93
2018-04-28T00:53:44.286Z,17.90
2018-04-28T00:56:13.332Z,17.91
2018-04-28T00:58:57.457Z,17.92
2018-04-28T01:01:31.952Z,17.90
2018-04-28T01:04:15.770Z,17.90
2018-04-28T01:06:44.186Z,17.87
2018-04-28T01:09:11.847Z,17.89
2018-04-28T01:11:41.550Z,17.84
2018-04-28T01:14:12.525Z,17.83
2018-04-28T01:16:43.148Z,17.80
2018-04-28T01:19:10.791Z,17.82
2018-04-28T01:21:39.254Z,17.82
2018-04-28T01:24:24.700Z,17.87
2018-04-28T01:30:22.951Z,17.87
2018-04-28T01:36:09.140Z,17.81
2018-04-28T01:38:37.628Z,17.82
2018-04-28T01:41:14.219Z,17.83
2018-04-28T01:43:58.658Z,17.82
2018-04-28T01:46:45.373Z,17.81
2018-04-28T01:49:15.868Z,17.77
2018-04-28T01:51:51.439Z,17.77
2018-04-28T01:54:43.452Z,17.80
2018-04-28T01:57:17.126Z,17.77
2018-04-28T01:59:53.512Z,17.78
2018-04-28T02:02:21.272Z,17.78
2018-04-28T02:05:07.552Z,17.80
2018-04-28T02:07:36.080Z,17.84
2018-04-28T02:10:03.820Z,17.84
2018-04-28T02:12:47.339Z,17.88
2018-04-28T02:15:30.663Z,17.93
2018-04-28T02:21:36.179Z,18.07
2018-04-28T02:24:29.617Z,18.14
2018-04-28T02:27:00.145Z,18.16
2018-04-28T02:29:34.610Z,18.19
2018-04-28T02:32:13.771Z,18.21
2018-04-28T02:34:43.238Z,18.21
2018-04-28T02:37:14.629Z,18.21
2018-04-28T02:39:42.288Z,18.27
2018-04-28T02:42:14.896Z,18.30
2018-04-28T02:44:47.248Z,18.33
2018-04-28T02:47:19.947Z,18.30
2018-04-28T02:50:01.119Z,18.23
2018-04-28T02:52:36.658Z,18.24
2018-04-28T02:55:09.879Z,18.27
2018-04-28T02:57:43.345Z,18.23
2018-04-28T03:03:28.834Z,18.28
2018-04-28T03:05:57.527Z,18.17
2018-04-28T03:08:49.039Z,18.12
2018-04-28T03:11:16.672Z,17.99
2018-04-28T03:13:45.859Z,17.98
2018-04-28T03:16:19.308Z,17.97
2018-04-28T03:18:47.848Z,17.94
2018-04-28T03:21:15.562Z,17.91
2018-04-28T03:23:46.056Z,17.82
2018-04-28T03:26:28.536Z,17.85
2018-04-28T03:29:03.104Z,17.77
2018-04-28T03:31:35.581Z,17.78
2018-04-28T03:34:18.120Z,17.73
2018-04-28T03:36:51.167Z,17.74
2018-04-28T03:39:26.453Z,17.82
2018-04-28T03:41:57.704Z,17.86
2018-04-28T03:44:33.268Z,17.86
2018-04-28T03:47:12.683Z,17.91
2018-04-28T03:49:40.480Z,17.91
2018-04-28T03:52:23.816Z,17.93
2018-04-28T03:54:56.291Z,17.91
2018-04-28T03:57:36.370Z,17.92
2018-04-28T04:00:15.891Z,17.95
2018-04-28T04:02:55.211Z,17.93
2018-04-28T04:08:49.556Z,18.01
2018-04-28T04:14:43.593Z,18.17
2018-04-28T04:17:21.012Z,18.18
2018-04-28T04:20:09.352Z,18.25
2018-04-28T04:22:39.734Z,18.30
2018-04-28T04:25:10.288Z,18.23
2018-04-28T04:27:59.737Z,18.16
2018-04-28T04:30:42.961Z,18.19
2018-04-28T04:33:31.640Z,18.26
2018-04-28T04:36:15.024Z,18.36
2018-04-28T04:38:43.459Z,18.45
2018-04-28T04:41:22.832Z,18.63
2018-04-28T04:47:17.711Z,19.02
2018-04-28T04:49:52.809Z,19.09
2018-04-28T04:52:33.188Z,19.20
2018-04-28T04:58:37.492Z,19.40
2018-04-28T05:01:16.138Z,19.84
2018-04-28T05:04:04.506Z,20.25
2018-04-28T05:07:03.557Z,20.63
2018-04-28T05:09:56.122Z,20.89
2018-04-28T05:12:27.265Z,21.02
2018-04-28T05:15:09.610Z,21.20
2018-04-28T05:17:45.911Z,21.77
2018-04-28T05:20:38.747Z,22.02
2018-04-28T05:23:28.220Z,22.43
2018-04-28T05:26:07.635Z,22.39
2018-04-28T05:28:44.271Z,22.19
2018-04-28T05:34:24.709Z,22.79
2018-04-28T05:37:03.312Z,22.86
2018-04-28T05:39:39.771Z,23.03
2018-04-28T05:45:32.579Z,23.87
2018-04-28T05:48:21.015Z,23.98
2018-04-28T05:50:59.387Z,24.01
2018-04-28T05:53:38.758Z,23.53
2018-04-28T05:56:21.295Z,23.52
2018-04-28T05:59:00.756Z,23.17
2018-04-28T06:01:49.215Z,22.84
2018-04-28T06:04:27.789Z,23.09
2018-04-28T06:07:08.972Z,23.37
2018-04-28T06:12:49.684Z,23.69
2018-04-28T06:15:35.941Z,23.78
2018-04-28T06:18:14.401Z,23.59
2018-04-28T06:20:46.755Z,23.99
2018-04-28T06:23:14.394Z,23.85
2018-04-28T06:25:42.104Z,23.75
2018-04-28T06:28:09.756Z,23.78
2018-04-28T06:30:37.608Z,24.06
2018-04-28T06:33:05.291Z,24.01
2018-04-28T06:35:32.940Z,24.05
2018-04-28T06:38:00.728Z,24.04
2018-04-28T06:40:28.380Z,23.69
2018-04-28T06:42:56.064Z,23.43
2018-04-28T06:45:23.770Z,23.35
2018-04-28T06:47:51.464Z,23.08
2018-04-28T06:50:19.152Z,23.13
2018-04-28T06:52:46.848Z,23.09
2018-04-28T06:55:14.491Z,23.19
2018-04-28T06:57:42.129Z,23.23
2018-04-28T07:00:09.849Z,23.53
2018-04-28T07:02:37.492Z,23.45
2018-04-28T07:05:05.150Z,23.46
2018-04-28T07:07:32.960Z,23.76
2018-04-28T07:10:00.684Z,24.09
2018-04-28T07:12:28.329Z,24.36
2018-04-28T07:14:56.128Z,24.48
2018-04-28T07:17:23.798Z,24.21
2018-04-28T07:19:51.484Z,24.27
2018-04-28T07:22:19.172Z,24.16
2018-04-28T07:24:46.840Z,24.03
2018-04-28T07:27:14.565Z,23.92
2018-04-28T07:29:42.281Z,24.48
2018-04-28T07:32:09.927Z,24.74
2018-04-28T07:34:37.641Z,24.82
2018-04-28T07:37:05.343Z,24.41
2018-04-28T07:39:32.992Z,24.36
2018-04-28T07:42:00.661Z,24.69
2018-04-28T07:44:28.396Z,24.70
2018-04-28T07:46:56.040Z,24.86
2018-04-28T07:49:23.676Z,24.93
2018-04-28T07:51:51.473Z,24.80
2018-04-28T07:54:19.080Z,24.85
2018-04-28T07:56:46.680Z,24.41
2018-04-28T07:59:14.307Z,24.20
2018-04-28T08:01:41.977Z,24.25
2018-04-28T08:04:09.696Z,24.27
2018-04-28T08:06:37.392Z,24.59
2018-04-28T08:09:05.064Z,24.89
2018-04-28T08:11:32.927Z,25.23
2018-04-28T08:14:01.272Z,25.19
2018-04-28T08:16:28.915Z,25.11
2018-04-28T08:18:56.646Z,24.93
2018-04-28T08:21:24.407Z,24.79
2018-04-28T08:23:52.118Z,25.16
2018-04-28T08:26:19.761Z,25.33
2018-04-28T08:28:47.561Z,25.26
2018-04-28T08:31:15.228Z,25.35
2018-04-28T08:33:42.924Z,25.41
2018-04-28T08:36:10.721Z,25.01
2018-04-28T08:38:38.386Z,25.28
2018-04-28T08:41:06.108Z,25.14
2018-04-28T08:43:33.804Z,25.27
2018-04-28T08:46:01.390Z,25.39
2018-04-28T08:48:29.032Z,25.49
2018-04-28T08:50:56.707Z,25.16
2018-04-28T08:53:24.436Z,25.22
2018-04-28T08:55:52.108Z,25.06
2018-04-28T08:58:19.799Z,25.21
2018-04-28T09:00:58.236Z,25.41
2018-04-28T09:03:26.674Z,25.12
2018-04-28T09:05:54.875Z,25.48
2018-04-28T09:08:22.596Z,25.79
2018-04-28T09:10:50.280Z,25.90
2018-04-28T09:13:18.926Z,26.16
2018-04-28T09:15:46.554Z,26.08
2018-04-28T09:18:14.168Z,25.82
2018-04-28T09:20:41.766Z,25.65
2018-04-28T09:23:09.343Z,25.70
2018-04-28T09:25:36.979Z,25.79
2018-04-28T09:28:04.653Z,25.97
2018-04-28T09:30:32.216Z,26.08
2018-04-28T09:32:59.833Z,26.01
2018-04-28T09:35:27.466Z,26.04
2018-04-28T09:37:55.119Z,25.94
2018-04-28T09:40:22.903Z,26.41
2018-04-28T09:42:50.476Z,26.58
2018-04-28T09:45:18.082Z,26.78
2018-04-28T09:47:45.792Z,27.08
2018-04-28T09:50:13.388Z,27.23
2018-04-28T09:52:40.965Z,27.16
2018-04-28T09:55:08.785Z,27.05
2018-04-28T09:57:36.352Z,27.13
2018-04-28T10:00:15.888Z,27.27
2018-04-28T10:02:43.473Z,26.78
2018-04-28T10:05:11.060Z,26.66
2018-04-28T10:07:38.690Z,26.77
2018-04-28T10:10:06.943Z,26.34
2018-04-28T10:12:34.623Z,26.32
2018-04-28T10:15:02.935Z,26.22
2018-04-28T10:17:30.572Z,26.80
2018-04-28T10:19:58.204Z,27.03
2018-04-28T10:22:25.920Z,27.15
2018-04-28T10:24:53.560Z,26.65
2018-04-28T10:27:21.141Z,26.79
2018-04-28T10:29:48.813Z,26.72
2018-04-28T10:32:16.384Z,26.63
2018-04-28T10:34:43.951Z,26.84
2018-04-28T10:37:11.577Z,27.14
2018-04-28T10:39:39.164Z,27.10
2018-04-28T10:42:06.827Z,27.13
2018-04-28T10:44:34.524Z,27.28
2018-04-28T10:47:02.095Z,27.22
2018-04-28T10:49:29.671Z,27.27
2018-04-28T10:51:57.304Z,27.58
2018-04-28T10:54:24.945Z,27.42
2018-04-28T10:56:52.584Z,27.16
2018-04-28T10:59:20.190Z,27.51
2018-04-28T11:01:47.826Z,27.67
2018-04-28T11:04:15.428Z,28.05
2018-04-28T11:06:43.140Z,28.31
2018-04-28T11:09:10.711Z,28.10
2018-04-28T11:11:38.272Z,27.67
2018-04-28T11:14:05.953Z,27.59
2018-04-28T11:16:34.354Z,27.75
2018-04-28T11:19:01.924Z,27.79
2018-04-28T11:21:29.631Z,28.15
2018-04-28T11:23:57.234Z,28.19
2018-04-28T11:26:24.833Z,28.56
2018-04-28T11:28:52.607Z,27.92
2018-04-28T11:31:20.188Z,27.79
2018-04-28T11:33:48.196Z,28.04
2018-04-28T11:36:15.981Z,28.21
2018-04-28T11:38:43.637Z,28.25
2018-04-28T11:41:11.212Z,28.04
2018-04-28T11:43:38.846Z,28.19
2018-04-28T11:46:06.519Z,28.13
2018-04-28T11:48:34.134Z,28.06
2018-04-28T11:51:01.761Z,28.19
2018-04-28T11:53:29.402Z,28.39
2018-04-28T11:55:56.987Z,28.42
2018-04-28T11:58:24.678Z,28.34
2018-04-28T12:00:52.310Z,28.67
2018-04-28T12:03:19.876Z,28.37
2018-04-28T12:05:47.596Z,28.51
2018-04-28T12:08:15.130Z,28.50
2018-04-28T12:10:42.704Z,28.33
2018-04-28T12:13:10.487Z,28.21
2018-04-28T12:15:38.124Z,28.32
2018-04-28T12:18:05.916Z,28.51
2018-04-28T12:20:33.540Z,28.79
2018-04-28T12:23:01.122Z,28.96
2018-04-28T12:25:28.696Z,28.86
2018-04-28T12:27:56.396Z,28.91
2018-04-28T12:30:23.971Z,29.06
2018-04-28T12:32:51.543Z,29.00
2018-04-28T12:35:19.171Z,28.58
2018-04-28T12:37:46.731Z,28.33
2018-04-28T12:40:14.303Z,28.29
2018-04-28T12:42:41.927Z,27.86
2018-04-28T12:45:09.569Z,27.52
2018-04-28T12:47:37.231Z,27.45
2018-04-28T12:50:04.896Z,27.65
2018-04-28T12:52:32.457Z,27.72
2018-04-28T12:55:00.100Z,27.45
2018-04-28T12:57:27.820Z,27.40
2018-04-28T12:59:55.424Z,27.43
2018-04-28T13:02:23.032Z,27.51
2018-04-28T13:04:50.715Z,27.49
2018-04-28T13:07:19.054Z,27.60
2018-04-28T13:09:46.620Z,27.44
2018-04-28T13:12:14.339Z,27.13
2018-04-28T13:14:41.929Z,26.88
2018-04-28T13:17:09.515Z,26.86
2018-04-28T13:19:37.428Z,26.94
2018-04-28T13:22:05.023Z,26.86
2018-04-28T13:24:32.668Z,26.86
2018-04-28T13:27:00.370Z,26.85
2018-04-28T13:29:27.971Z,26.74
2018-04-28T13:31:55.565Z,26.63
2018-04-28T13:34:23.210Z,26.58
2018-04-28T13:36:50.788Z,26.59
2018-04-28T13:39:18.375Z,26.61
2018-04-28T13:41:46.164Z,26.63
2018-04-28T13:44:13.742Z,26.40
2018-04-28T13:46:41.822Z,26.36
2018-04-28T13:49:09.516Z,26.19
2018-04-28T13:51:37.160Z,26.19
2018-04-28T13:54:04.831Z,26.22
2018-04-28T13:56:32.555Z,26.12
2018-04-28T13:59:00.141Z,26.14
2018-04-28T14:01:27.721Z,26.13
2018-04-28T14:03:55.412Z,26.18
2018-04-28T14:06:23.038Z,26.11
2018-04-28T14:08:50.647Z,26.11
2018-04-28T14:11:18.278Z,26.16
2018-04-28T14:13:45.928Z,26.09
2018-04-28T14:16:13.547Z,26.02
2018-04-28T14:18:41.243Z,25.98
2018-04-28T14:21:09.125Z,25.98
2018-04-28T14:23:36.702Z,25.96
2018-04-28T14:26:04.328Z,25.99
2018-04-28T14:28:31.909Z,25.99
2018-04-28T14:30:59.548Z,25.97
2018-04-28T14:33:27.268Z,25.86
2018-04-28T14:35:54.847Z,25.81
2018-04-28T14:38:22.461Z,25.75
2018-04-28T14:40:50.177Z,25.62
2018-04-28T14:43:17.751Z,25.53
2018-04-28T14:45:45.327Z,25.52
2018-04-28T14:48:12.979Z,25.57
2018-04-28T14:50:41.392Z,25.63
2018-04-28T14:53:09.826Z,25.62
2018-04-28T14:55:37.440Z,25.56
2018-04-28T14:58:05.030Z,25.57
2018-04-28T15:00:32.615Z,25.55
2018-04-28T15:03:00.255Z,25.52
2018-04-28T15:05:27.887Z,25.49
2018-04-28T15:07:55.520Z,25.42
2018-04-28T15:10:23.266Z,25.26
2018-04-28T15:12:50.848Z,25.27
2018-04-28T15:15:18.423Z,25.26
2018-04-28T15:17:46.131Z,25.20
2018-04-28T15:20:13.781Z,24.96
2018-04-28T15:22:41.721Z,24.84
2018-04-28T15:25:09.383Z,24.71
2018-04-28T15:27:36.972Z,24.74
2018-04-28T15:30:04.641Z,24.71
2018-04-28T15:32:32.324Z,24.73
2018-04-28T15:34:59.964Z,24.73
2018-04-28T15:37:27.580Z,24.71
2018-04-28T15:39:55.295Z,24.65
2018-04-28T15:42:22.862Z,24.61
2018-04-28T15:44:50.492Z,24.57
2018-04-28T15:47:18.123Z,24.54
2018-04-28T15:49:45.761Z,24.42
2018-04-28T15:52:13.337Z,24.18
2018-04-28T15:54:41.028Z,24.17
2018-04-28T15:57:09.326Z,24.18
2018-04-28T15:59:36.964Z,24.15
2018-04-28T16:02:04.677Z,24.00
2018-04-28T16:04:32.304Z,23.92
2018-04-28T16:07:00.399Z,23.85
2018-04-28T16:09:28.093Z,23.81
2018-04-28T16:11:55.747Z,23.81
2018-04-28T16:14:23.394Z,23.75
2018-04-28T16:16:51.024Z,23.68
2018-04-28T16:19:18.666Z,23.63
2018-04-28T16:21:46.374Z,23.59
2018-04-28T16:24:14.611Z,23.49
2018-04-28T16:26:42.240Z,23.43
2018-04-28T16:29:09.884Z,23.29
2018-04-28T16:31:37.604Z,23.20
2018-04-28T16:34:05.182Z,23.06
2018-04-28T16:36:32.754Z,23.00
2018-04-28T16:39:01.033Z,22.92
2018-04-28T16:41:28.672Z,22.87
2018-04-28T16:43:56.251Z,22.77
2018-04-28T16:46:24.777Z,22.63
2018-04-28T16:48:52.340Z,22.49
2018-04-28T16:51:19.921Z,22.41
2018-04-28T16:53:47.568Z,22.38
2018-04-28T16:56:15.155Z,22.32
2018-04-28T16:58:42.792Z,22.27
2018-04-28T17:01:10.421Z,22.20
2018-04-28T17:03:38.014Z,22.11
2018-04-28T17:06:05.651Z,22.05
2018-04-28T17:08:33.359Z,21.92
2018-04-28T17:11:00.959Z,21.85
2018-04-28T17:13:28.596Z,21.77
2018-04-28T17:15:56.224Z,21.59
2018-04-28T17:21:05.429Z,21.44
2018-04-28T17:23:33.000Z,21.32
2018-04-28T17:26:00.852Z,21.28
2018-04-28T17:28:28.473Z,21.27
2018-04-28T17:30:56.057Z,21.21
2018-04-28T17:33:23.629Z,21.17
2018-04-28T17:35:51.335Z,21.09
2018-04-28T17:38:18.961Z,21.03
2018-04-28T17:40:46.605Z,20.96
2018-04-28T17:43:14.220Z,20.84
2018-04-28T17:45:41.920Z,20.80
2018-04-28T17:48:09.576Z,20.68
2018-04-28T17:50:37.265Z,20.59
2018-04-28T17:53:04.890Z,20.55
2018-04-28T17:55:32.459Z,20.63
2018-04-28T17:58:00.149Z,20.69
2018-04-28T18:00:27.776Z,20.59
2018-04-28T18:02:55.496Z,20.47
2018-04-28T18:05:23.227Z,20.34
2018-04-28T18:07:50.862Z,20.07
2018-04-28T18:10:18.449Z,20.03
2018-04-28T18:12:46.076Z,20.00
2018-04-28T18:15:13.648Z,19.97
2018-04-28T18:17:41.228Z,19.95
2018-04-28T18:20:09.009Z,19.94
2018-04-28T18:22:36.593Z,19.92
2018-04-28T18:25:04.220Z,19.92
2018-04-28T18:27:32.089Z,19.90
2018-04-28T18:29:59.664Z,19.88
2018-04-28T18:32:27.240Z,19.81
2018-04-28T18:34:54.867Z,19.61
2018-04-28T18:37:22.482Z,19.61
2018-04-28T18:39:50.065Z,19.55
2018-04-28T18:42:17.790Z,19.54
2018-04-28T18:44:45.364Z,19.49
2018-04-28T18:47:12.937Z,19.49
2018-04-28T18:49:40.563Z,19.46
2018-04-28T18:52:08.807Z,19.43
2018-04-28T18:54:36.381Z,19.40
2018-04-28T18:57:04.109Z,19.38
2018-04-28T18:59:31.685Z,19.37
2018-04-28T19:01:59.256Z,19.33
2018-04-28T19:04:26.903Z,19.35
2018-04-28T19:06:55.041Z,19.33
2018-04-28T19:09:22.624Z,19.33
2018-04-28T19:11:50.255Z,19.32
2018-04-28T19:14:18.109Z,19.34
2018-04-28T19:16:45.660Z,19.28
2018-04-28T19:19:13.348Z,19.26
2018-04-28T19:21:40.921Z,19.24
2018-04-28T19:24:08.548Z,19.15
2018-04-28T19:26:36.586Z,19.11
2018-04-28T19:29:05.163Z,19.11
2018-04-28T19:31:33.405Z,19.13
2018-04-28T19:34:01.171Z,19.11
2018-04-28T19:36:28.746Z,19.09
2018-04-28T19:38:56.327Z,19.08
2018-04-28T19:41:24.020Z,19.03
2018-04-28T19:43:52.004Z,19.00
2018-04-28T19:46:19.603Z,18.98
2018-04-28T19:48:47.227Z,18.91
2018-04-28T19:51:14.849Z,18.85
2018-04-28T19:53:42.435Z,18.82
2018-04-28T19:56:10.185Z,18.83
2018-04-28T19:58:37.784Z,18.82
2018-04-28T20:01:05.433Z,18.84
2018-04-28T20:03:33.092Z,18.82
2018-04-28T20:06:00.726Z,18.78
2018-04-28T20:08:28.365Z,18.77
2018-04-28T20:10:55.984Z,18.73
2018-04-28T20:13:23.561Z,18.74
2018-04-28T20:15:51.193Z,18.67
2018-04-28T20:18:19.903Z,18.66
2018-04-28T20:20:47.536Z,18.66
2018-04-28T20:23:27.641Z,18.65
2018-04-28T20:25:55.283Z,18.58
2018-04-28T20:28:22.883Z,18.57
2018-04-28T20:30:51.119Z,18.57
2018-04-28T20:33:18.754Z,18.59
2018-04-28T20:35:46.458Z,18.61
2018-04-28T20:38:14.139Z,18.59
2018-04-28T20:40:41.704Z,18.57
2018-04-28T20:43:09.336Z,18.58
2018-04-28T20:45:36.969Z,18.61
2018-04-28T20:48:04.591Z,18.60
2018-04-28T20:50:32.159Z,18.64
2018-04-28T20:52:59.796Z,18.58
2018-04-28T20:55:27.436Z,18.56
2018-04-28T20:57:55.015Z,18.54
2018-04-28T21:00:22.640Z,18.55
2018-04-28T21:02:51.162Z,18.51
2018-04-28T21:05:18.799Z,18.50
2018-04-28T21:07:46.450Z,18.48
2018-04-28T21:10:14.042Z,18.38
2018-04-28T21:12:41.718Z,18.36
2018-04-28T21:15:09.375Z,18.35
2018-04-28T21:17:36.955Z,18.37
2018-04-28T21:20:04.658Z,18.38
2018-04-28T21:22:32.474Z,18.40
2018-04-28T21:25:00.712Z,18.40
2018-04-28T21:27:28.359Z,18.38
2018-04-28T21:29:56.032Z,18.36
2018-04-28T21:32:23.891Z,18.34
2018-04-28T21:34:51.471Z,18.33
2018-04-28T21:37:19.079Z,18.33
2018-04-28T21:39:46.674Z,18.30
2018-04-28T21:42:14.315Z,18.28
2018-04-28T21:44:42.123Z,18.23
2018-04-28T21:47:09.704Z,18.21
2018-04-28T21:49:37.268Z,18.14
2018-04-28T21:52:04.976Z,18.05
2018-04-28T21:54:32.574Z,17.99
2018-04-28T21:57:00.171Z,17.91
2018-04-28T21:59:27.919Z,17.84
2018-04-28T22:01:55.512Z,17.72
2018-04-28T22:04:23.117Z,17.65
2018-04-28T22:06:50.828Z,17.57
2018-04-28T22:09:18.457Z,17.53
2018-04-28T22:11:46.047Z,17.42
2018-04-28T22:14:13.675Z,17.33
2018-04-28T22:16:41.257Z,17.25
2018-04-28T22:19:08.848Z,17.18
2018-04-28T22:21:36.592Z,17.11
2018-04-28T22:24:04.291Z,17.07
2018-04-28T22:26:31.871Z,17.02
2018-04-28T22:28:59.690Z,16.96
2018-04-28T22:31:27.333Z,16.94
2018-04-28T22:33:55.256Z,16.87
2018-04-28T22:36:22.883Z,16.81
2018-04-28T22:38:50.484Z,16.75
2018-04-28T22:41:18.063Z,16.69
2018-04-28T22:43:45.861Z,16.59
2018-04-28T22:46:13.517Z,16.54
2018-04-28T22:48:41.159Z,16.43
2018-04-28T22:51:08.895Z,16.31
2018-04-28T22:53:36.476Z,16.22
2018-04-28T22:56:04.055Z,16.13
2018-04-28T22:58:31.699Z,16.04
2018-04-28T23:00:59.345Z,15.96
2018-04-28T23:03:26.910Z,15.86
2018-04-28T23:05:54.632Z,15.79
2018-04-28T23:08:22.288Z,15.71
2018-04-28T23:10:49.875Z,15.66
2018-04-28T23:13:17.563Z,15.63
2018-04-28T23:15:45.135Z,15.61
2018-04-28T23:18:12.732Z,15.57
2018-04-28T23:20:40.340Z,15.48
2018-04-28T23:23:08.007Z,15.41
2018-04-28T23:25:35.591Z,15.35
2018-04-28T23:28:03.212Z,15.33
2018-04-28T23:30:30.849Z,15.28
2018-04-28T23:32:58.420Z,15.25
2018-04-28T23:35:26.261Z,15.24
2018-04-28T23:37:54.511Z,15.20
2018-04-28T23:40:22.103Z,15.14
2018-04-28T23:42:49.889Z,15.09
2018-04-28T23:45:18.329Z,15.04
2018-04-28T23:47:45.956Z,15.03
2018-04-28T23:50:13.640Z,15.04
2018-04-28T23:52:41.263Z,15.00
2018-04-28T23:55:08.849Z,14.99
2018-04-28T23:57:36.466Z,14.97
